createdAt,value
2018-08-03T18:01:54.940Z,4.42
2018-08-03T18:04:40.951Z,3.80
2018-08-03T18:07:10.031Z,4.15
2018-08-03T18:09:38.917Z,7.08
2018-08-03T18:12:08.324Z,4.25
2018-08-03T18:14:37.271Z,5.17
2018-08-03T18:17:07.350Z,3.58
2018-08-03T18:19:35.872Z,4.87
2018-08-03T18:22:05.370Z,3.20
2018-08-03T18:24:35.148Z,4.70
2018-08-03T18:27:04.775Z,3.65
2018-08-03T18:29:33.730Z,5.42
2018-08-03T18:32:04.940Z,10.05
2018-08-03T18:34:36.611Z,5.08
2018-08-03T18:37:05.431Z,7.83
2018-08-03T18:39:34.358Z,5.53
2018-08-03T18:42:03.373Z,6.53
2018-08-03T18:44:32.218Z,6.50
2018-08-03T18:47:02.924Z,5.87
2018-08-03T18:49:31.803Z,5.45
2018-08-03T18:52:00.824Z,4.35
2018-08-03T18:54:30.210Z,4.95
2018-08-03T18:56:59.134Z,4.22
2018-08-03T18:59:28.158Z,5.58
2018-08-03T19:01:57.027Z,6.53
2018-08-03T19:04:25.872Z,5.08
2018-08-03T19:06:56.884Z,7.58
2018-08-03T19:09:25.755Z,3.37
2018-08-03T19:11:55.967Z,6.03
2018-08-03T19:14:24.887Z,8.33
2018-08-03T19:16:54.345Z,12.17
2018-08-03T19:19:23.263Z,8.80
2018-08-03T19:21:52.194Z,3.90
2018-08-03T19:24:25.428Z,5.83
2018-08-03T19:26:54.443Z,8.33
2018-08-03T19:29:23.472Z,8.37
2018-08-03T19:31:53.839Z,11.57
2018-08-03T19:34:22.794Z,3.57
2018-08-03T19:36:51.796Z,6.07
2018-08-03T19:39:20.670Z,7.53
2018-08-03T19:41:50.085Z,4.07
2018-08-03T19:44:19.888Z,6.73
2018-08-03T19:46:49.055Z,6.77
2018-08-03T19:49:18.628Z,8.47
2018-08-03T19:51:50.436Z,6.07
2018-08-03T19:54:19.682Z,10.17
2018-08-03T19:56:50.763Z,4.03
2018-08-03T19:59:19.869Z,7.20
2018-08-03T20:01:49.729Z,8.20
2018-08-03T20:04:19.801Z,6.50
2018-08-03T20:06:49.218Z,5.27
2018-08-03T20:09:18.449Z,7.57
2018-08-03T20:11:51.107Z,4.93
2018-08-03T20:14:20.055Z,7.47
2018-08-03T20:16:49.353Z,6.43
2018-08-03T20:19:18.499Z,10.30
2018-08-03T20:21:51.882Z,4.97
2018-08-03T20:24:21.547Z,6.73
2018-08-03T20:26:50.701Z,6.73
2018-08-03T20:29:19.244Z,8.40
2018-08-03T20:31:54.802Z,5.73
2018-08-03T20:34:23.878Z,8.90
2018-08-03T20:36:53.073Z,7.30
2018-08-03T20:39:22.015Z,6.80
2018-08-03T20:41:50.956Z,5.77
2018-08-03T20:44:19.951Z,6.63
2018-08-03T20:46:50.055Z,8.47
2018-08-03T20:49:20.364Z,6.37
2018-08-03T20:51:55.877Z,8.07
2018-08-03T20:54:24.943Z,6.80
2018-08-03T20:56:56.771Z,7.47
2018-08-03T20:59:26.153Z,7.47
2018-08-03T21:01:55.110Z,6.50
2018-08-03T21:04:24.030Z,7.77
2018-08-03T21:06:53.098Z,9.67
2018-08-03T21:09:22.181Z,10.20
2018-08-03T21:11:52.081Z,10.97
2018-08-03T21:14:25.120Z,13.93
2018-08-03T21:16:55.120Z,7.63
2018-08-03T21:19:23.491Z,6.43
2018-08-03T21:21:52.522Z,7.00
2018-08-03T21:24:23.189Z,6.57
2018-08-03T21:26:51.767Z,10.70
2018-08-03T21:29:20.694Z,9.03
2018-08-03T21:31:50.861Z,10.13
2018-08-03T21:34:19.987Z,8.97
2018-08-03T21:36:49.327Z,7.27
2018-08-03T21:39:18.383Z,8.70
2018-08-03T21:41:54.453Z,6.03
2018-08-03T21:44:23.655Z,7.63
2018-08-03T21:46:52.534Z,7.47
2018-08-03T21:49:21.928Z,5.70
2018-08-03T21:51:54.308Z,6.93
2018-08-03T21:54:23.269Z,5.60
2018-08-03T21:56:52.139Z,7.67
2018-08-03T21:59:21.191Z,7.10
2018-08-03T22:01:50.772Z,11.07
2018-08-03T22:04:19.720Z,8.00
2018-08-03T22:06:48.757Z,7.77
2018-08-03T22:09:18.054Z,6.23
2018-08-03T22:11:48.104Z,11.37
2018-08-03T22:14:17.093Z,12.27
2018-08-03T22:16:47.181Z,11.90
2018-08-03T22:19:16.202Z,13.87
2018-08-03T22:21:45.243Z,9.80
2018-08-03T22:24:15.172Z,15.07
2018-08-03T22:26:44.142Z,14.60
2018-08-03T22:29:13.788Z,14.00
2018-08-03T22:31:42.973Z,12.57
2018-08-03T22:34:11.814Z,9.03
2018-08-03T22:36:40.789Z,8.63
2018-08-03T22:39:10.095Z,7.27
2018-08-03T22:41:39.617Z,10.83
2018-08-03T22:44:08.616Z,14.57
2018-08-03T22:46:39.399Z,12.43
2018-08-03T22:49:08.789Z,15.07
2018-08-03T22:51:37.764Z,14.37
2018-08-03T22:54:06.954Z,13.17
2018-08-03T22:56:36.790Z,15.57
2018-08-03T22:59:05.969Z,15.80
2018-08-03T23:01:35.151Z,16.13
2018-08-03T23:04:04.217Z,16.50
2018-08-03T23:06:33.136Z,15.43
2018-08-03T23:09:02.699Z,20.70
2018-08-03T23:11:31.661Z,16.03
2018-08-03T23:14:00.959Z,16.27
2018-08-03T23:16:30.189Z,12.47
2018-08-03T23:18:59.377Z,15.40
2018-08-03T23:21:28.499Z,16.73
2018-08-03T23:23:58.253Z,14.10
2018-08-03T23:26:28.129Z,14.90
2018-08-03T23:28:58.246Z,17.53
2018-08-03T23:31:27.859Z,15.70
2018-08-03T23:33:58.041Z,16.47
2018-08-03T23:36:27.652Z,19.23
2018-08-03T23:38:58.348Z,18.17
2018-08-03T23:41:28.325Z,19.00
2018-08-03T23:43:57.355Z,21.50
2018-08-03T23:46:26.249Z,22.07
2018-08-03T23:48:57.751Z,25.13
2018-08-03T23:51:26.812Z,25.17
2018-08-03T23:53:55.873Z,22.30
2018-08-03T23:56:26.144Z,21.17
2018-08-03T23:58:56.113Z,23.13
